Time;durP1;ratioP1;P1;durP2;ratioP2;P2;SDS_P1;SDS_P2;PMS_P1;PMS_P2;Temp;Humidity;BMP_temperature;BMP_pressure;BME280_temperature;BME280_humidity;BME280_pressure;Samples;Min_cycle;Max_cycle;Signal;HPM_P1;HPM_P2
2024/02/08 00:00:08;;;;;;;0.20;0.20;;;;;;;5.30;69.29;100562.19;5079500;28;20025;-80
2024/02/08 00:02:34;;;;;;;0.20;0.20;;;;;;;5.30;69.73;100557.78;5084321;28;20032;-81
2024/02/08 00:05:01;;;;;;;0.13;0.13;;;;;;;5.34;69.46;100556.03;5081287;28;20518;-81
2024/02/08 00:07:27;;;;;;;0.20;0.20;;;;;;;5.35;69.32;100558.63;5082921;28;20028;-80
2024/02/08 00:09:55;;;;;;;1.30;1.30;;;;;;;5.36;69.08;100567.41;5079206;28;20032;-78
2024/02/08 00:12:21;;;;;;;0.20;0.20;;;;;;;5.36;69.24;100567.41;5079987;28;20348;-82
2024/02/08 00:14:49;;;;;;;0.30;0.30;;;;;;;5.33;69.57;100578.81;5079920;28;20081;-78
2024/02/08 00:17:20;;;;;;;0.20;0.20;;;;;;;5.37;69.05;100576.16;5079377;28;20511;-79
2024/02/08 00:19:50;;;;;;;0.20;0.20;;;;;;;5.35;69.29;100584.91;5078859;28;20442;-79
2024/02/08 00:22:20;;;;;;;0.20;0.20;;;;;;;5.37;69.27;100584.03;5076823;28;20025;-80
2024/02/08 00:24:46;;;;;;;0.20;0.20;;;;;;;5.35;69.36;100581.44;5080247;28;20027;-79
2024/02/08 00:27:13;;;;;;;0.10;0.10;;;;;;;5.37;69.38;100579.69;5078023;28;20040;-80
2024/02/08 00:29:42;;;;;;;0.20;0.20;;;;;;;5.38;69.66;100581.41;5079465;28;20082;-79
2024/02/08 00:32:09;;;;;;;0.10;0.10;;;;;;;5.38;69.26;100578.78;5085952;28;20558;-79
2024/02/08 00:34:38;;;;;;;0.47;0.47;;;;;;;5.33;69.76;100577.91;5076882;28;20033;-80
2024/02/08 00:37:06;;;;;;;0.20;0.20;;;;;;;5.30;69.58;100576.19;5074788;28;20033;-80
2024/02/08 00:39:34;;;;;;;0.10;0.10;;;;;;;5.30;69.09;100572.69;5075366;28;20028;-79
2024/02/08 00:42:00;;;;;;;0.95;0.95;;;;;;;5.30;69.69;100564.81;5088796;28;20024;-79
2024/02/08 00:44:27;;;;;;;0.20;0.20;;;;;;;5.30;69.89;100546.41;5077836;28;20059;-79
2024/02/08 00:46:54;;;;;;;0.20;0.20;;;;;;;5.30;70.03;100534.16;5079251;28;20052;-79
2024/02/08 00:49:21;;;;;;;0.20;0.20;;;;;;;5.30;69.91;100530.66;5091531;28;20128;-79
2024/02/08 00:51:49;;;;;;;0.10;0.10;;;;;;;5.32;69.78;100521.88;5076298;28;20020;-80
2024/02/08 00:54:16;;;;;;;0.20;0.20;;;;;;;5.33;70.02;100525.38;5085972;28;20059;-79
2024/02/08 00:56:42;;;;;;;0.20;0.20;;;;;;;5.37;70.15;100531.50;5085005;28;20093;-79
2024/02/08 00:59:11;;;;;;;0.20;0.20;;;;;;;5.39;70.02;100535.88;5083443;28;20060;-78
2024/02/08 01:01:40;;;;;;;0.20;0.20;;;;;;;5.40;69.95;100545.50;5082886;28;20021;-79
2024/02/08 01:04:07;;;;;;;0.20;0.20;;;;;;;5.44;70.09;100546.38;5083890;28;20024;-79
2024/02/08 01:06:34;;;;;;;0.10;0.10;;;;;;;5.49;69.84;100542.81;5084279;28;20110;-79
2024/02/08 01:09:00;;;;;;;0.20;0.20;;;;;;;5.49;70.21;100537.56;5082330;28;20035;-80
2024/02/08 01:11:26;;;;;;;0.10;0.10;;;;;;;5.51;70.22;100538.44;5091060;28;20034;-80
2024/02/08 01:13:53;;;;;;;0.20;0.20;;;;;;;5.53;70.14;100530.56;5090139;28;20033;-80
2024/02/08 01:16:19;;;;;;;0.75;0.75;;;;;;;5.55;70.35;100541.09;5084343;28;20487;-80
2024/02/08 01:18:45;;;;;;;0.20;0.20;;;;;;;5.56;70.28;100537.53;5090854;28;20031;-79
2024/02/08 01:21:11;;;;;;;0.10;0.10;;;;;;;5.60;70.17;100541.94;5091998;28;20033;-81
2024/02/08 01:23:39;;;;;;;0.20;0.20;;;;;;;5.61;69.91;100539.28;5085985;28;20055;-80
2024/02/08 01:26:06;;;;;;;0.38;0.38;;;;;;;5.60;70.00;100540.16;5093068;28;20031;-81
2024/02/08 01:28:34;;;;;;;0.20;0.20;;;;;;;5.62;69.75;100548.03;5090773;28;20036;-81
2024/02/08 01:31:01;;;;;;;0.20;0.20;;;;;;;5.63;69.60;100548.03;5092599;28;20051;-80
2024/02/08 01:33:27;;;;;;;0.10;0.10;;;;;;;5.64;69.42;100541.03;5095140;28;20028;-78
2024/02/08 01:35:53;;;;;;;0.82;0.82;;;;;;;5.63;69.84;100524.41;5091277;28;20035;-81
2024/02/08 01:38:19;;;;;;;0.10;0.10;;;;;;;5.66;69.84;100534.03;5095252;28;20057;-81
2024/02/08 01:40:46;;;;;;;0.10;0.10;;;;;;;5.66;69.78;100519.09;5090702;28;20043;-79
2024/02/08 01:43:12;;;;;;;0.40;0.40;;;;;;;5.69;69.96;100512.97;5092259;28;20016;-80
2024/02/08 01:45:40;;;;;;;0.20;0.20;;;;;;;5.73;69.84;100514.72;5086777;28;20025;-79
2024/02/08 01:48:10;;;;;;;0.17;0.17;;;;;;;5.78;70.00;100510.28;5075528;28;20041;-80
2024/02/08 01:50:48;;;;;;;0.65;0.65;;;;;;;5.84;70.01;100514.63;5079280;28;20450;-79
2024/02/08 01:53:27;;;;;;;0.30;0.30;;;;;;;5.83;70.07;100510.25;5087706;28;20049;-79
2024/02/08 01:55:57;;;;;;;0.10;0.10;;;;;;;5.83;70.49;100511.13;5088256;28;20050;-79
2024/02/08 01:58:25;;;;;;;0.20;0.20;;;;;;;5.92;69.96;100510.22;5083566;28;20032;-79
2024/02/08 02:00:52;;;;;;;0.10;0.10;;;;;;;5.94;69.88;100513.72;5085895;28;20036;-79
2024/02/08 02:03:20;;;;;;;2.72;0.65;;;;;;;5.96;70.08;100516.31;5086530;28;20032;-79
2024/02/08 02:05:46;;;;;;;0.65;0.65;;;;;;;5.98;69.83;100520.72;5086557;28;20111;-79
2024/02/08 02:08:16;;;;;;;0.15;0.15;;;;;;;6.01;70.07;100522.47;5084177;28;20066;-79
2024/02/08 02:10:47;;;;;;;0.20;0.20;;;;;;;6.03;70.39;100531.22;5086357;28;20035;-80
2024/02/08 02:13:15;;;;;;;0.20;0.20;;;;;;;6.02;69.95;100529.47;5083840;28;20162;-79
2024/02/08 02:15:42;;;;;;;0.20;0.20;;;;;;;6.01;69.98;100532.09;5084166;28;20445;-80
2024/02/08 02:18:09;;;;;;;0.57;0.25;;;;;;;6.00;69.74;100518.06;5087654;28;20035;-79
2024/02/08 02:20:36;;;;;;;0.10;0.10;;;;;;;5.99;69.62;100497.91;5085489;28;20056;-78
2024/02/08 02:23:03;;;;;;;0.10;0.10;;;;;;;6.00;69.51;100497.03;5083701;28;20040;-80
2024/02/08 02:25:32;;;;;;;0.10;0.10;;;;;;;6.00;69.75;100507.56;5081588;28;20035;-78
2024/02/08 02:28:00;;;;;;;0.47;0.47;;;;;;;5.97;69.68;100502.31;5083661;28;20048;-80
2024/02/08 02:30:28;;;;;;;0.28;0.28;;;;;;;5.98;69.63;100509.28;5085671;28;20051;-79
2024/02/08 02:32:59;;;;;;;0.20;0.20;;;;;;;5.97;69.71;100497.03;5085927;28;20021;-78
2024/02/08 02:35:28;;;;;;;0.40;0.40;;;;;;;5.95;70.09;100488.28;5084214;28;20039;-78
2024/02/08 02:37:58;;;;;;;0.10;0.10;;;;;;;5.93;69.61;100479.50;5086699;28;20538;-79
2024/02/08 02:40:24;;;;;;;0.20;0.20;;;;;;;5.93;69.70;100482.16;5084335;28;20028;-79
2024/02/08 02:42:51;;;;;;;0.10;0.10;;;;;;;5.93;69.55;100482.16;5089384;28;20578;-80
2024/02/08 02:45:23;;;;;;;2.72;2.47;;;;;;;5.91;69.78;100491.81;5090806;28;20039;-80
2024/02/08 02:47:53;;;;;;;0.20;0.20;;;;;;;5.94;69.62;100486.53;5090565;28;20036;-80
2024/02/08 02:50:21;;;;;;;0.20;0.20;;;;;;;5.94;69.58;100483.91;5090446;28;20083;-80
2024/02/08 02:52:49;;;;;;;0.20;0.20;;;;;;;5.95;69.48;100493.53;5084329;28;20031;-80
2024/02/08 02:55:16;;;;;;;0.20;0.20;;;;;;;5.96;69.41;100500.53;5082759;28;20028;-80
2024/02/08 02:57:43;;;;;;;0.20;0.20;;;;;;;5.95;69.77;100490.91;5084205;28;20047;-80
2024/02/08 03:00:33;;;;;;;0.20;0.20;;;;;;;5.93;69.77;100487.41;5080762;28;20068;-80
2024/02/08 03:02:57;;;;;;;1.95;1.85;;;;;;;5.93;69.66;100487.41;5081368;28;20047;-80
2024/02/08 03:05:24;;;;;;;0.10;0.10;;;;;;;5.90;69.45;100474.28;5084320;28;20028;-80
2024/02/08 03:07:52;;;;;;;0.20;0.20;;;;;;;5.91;69.64;100473.41;5087824;28;20048;-80
2024/02/08 03:10:20;;;;;;;0.10;0.10;;;;;;;5.88;69.59;100460.28;5090343;28;20035;-80
2024/02/08 03:12:49;;;;;;;0.10;0.10;;;;;;;5.88;69.77;100460.28;5092151;28;20039;-79
2024/02/08 03:15:16;;;;;;;0.10;0.10;;;;;;;5.86;69.73;100462.91;5090107;28;20048;-79
2024/02/08 03:17:47;;;;;;;0.17;0.17;;;;;;;5.90;69.64;100453.25;5092875;28;20036;-80
2024/02/08 03:20:23;;;;;;;0.77;0.77;;;;;;;5.88;69.74;100452.38;5092875;28;20028;-80
2024/02/08 03:22:50;;;;;;;0.10;0.10;;;;;;;5.90;70.02;100446.22;5092272;28;20039;-79
2024/02/08 03:25:16;;;;;;;0.20;0.20;;;;;;;5.93;69.85;100445.31;5091693;28;20035;-80
2024/02/08 03:27:43;;;;;;;0.20;0.20;;;;;;;5.93;69.73;100447.97;5092790;28;20039;-79
2024/02/08 03:30:42;;;;;;;0.20;0.20;;;;;;;5.93;69.83;100437.44;5094637;28;20089;-80
2024/02/08 03:32:58;;;;;;;0.20;0.20;;;;;;;5.93;69.83;100440.97;5093704;28;20043;-77
2024/02/08 03:35:27;;;;;;;0.20;0.20;;;;;;;5.95;69.87;100446.19;5091986;28;20027;-79
2024/02/08 03:37:55;;;;;;;0.10;0.10;;;;;;;5.95;69.87;100448.84;5092448;28;20024;-80
2024/02/08 03:40:22;;;;;;;0.20;0.20;;;;;;;5.95;69.96;100449.69;5092570;28;20047;-80
2024/02/08 03:42:49;;;;;;;7.63;1.40;;;;;;;5.94;69.75;100444.44;5090609;28;20028;-80
2024/02/08 03:45:18;;;;;;;0.20;0.20;;;;;;;5.96;69.73;100453.22;5090601;28;20092;-79
2024/02/08 03:47:45;;;;;;;0.20;0.20;;;;;;;5.96;69.78;100447.94;5093032;28;20036;-80
2024/02/08 03:50:12;;;;;;;0.43;0.43;;;;;;;5.95;69.71;100451.47;5093991;28;20034;-79
2024/02/08 03:52:38;;;;;;;0.10;0.10;;;;;;;5.97;69.93;100450.56;5089925;28;20040;-79
2024/02/08 03:55:08;;;;;;;0.47;0.47;;;;;;;5.97;69.76;100445.31;5092000;28;20079;-79
2024/02/08 03:57:36;;;;;;;0.70;0.70;;;;;;;5.99;70.01;100427.81;5088624;28;20395;-80
2024/02/08 04:00:04;;;;;;;0.63;0.63;;;;;;;5.99;70.04;100427.81;5089476;28;20058;-80
2024/02/08 04:02:34;;;;;;;0.38;0.38;;;;;;;6.01;69.71;100430.41;5090515;28;20031;-80
2024/02/08 04:05:19;;;;;;;0.30;0.30;;;;;;;6.03;69.76;100411.97;5086322;28;20044;-81
2024/02/08 04:07:56;;;;;;;0.38;0.38;;;;;;;6.04;69.95;100409.34;5087681;28;20662;-81
2024/02/08 04:54:45;;;;;;;0.70;0.70;;;;;;;5.83;69.58;100394.56;5081560;28;20092;-80
2024/02/08 04:57:11;;;;;;;0.20;0.20;;;;;;;5.83;69.53;100399.81;5081924;28;20028;-80
2024/02/08 04:59:42;;;;;;;0.10;0.10;;;;;;;5.88;69.58;100397.16;5080835;28;20028;-80
2024/02/08 05:02:09;;;;;;;0.10;0.10;;;;;;;5.84;69.76;100398.94;5089634;28;20027;-79
2024/02/08 05:04:36;;;;;;;0.20;0.20;;;;;;;5.83;69.63;100410.34;5087442;28;20092;-80
2024/02/08 05:07:04;;;;;;;0.15;0.15;;;;;;;5.83;69.37;100402.44;5084375;28;20012;-80
2024/02/08 05:09:31;;;;;;;0.15;0.15;;;;;;;5.81;69.51;100402.47;5079220;28;20032;-80
2024/02/08 05:11:59;;;;;;;0.40;0.40;;;;;;;5.83;69.45;100398.09;5080420;28;20062;-81
2024/02/08 05:14:26;;;;;;;0.65;0.65;;;;;;;5.84;69.42;100404.19;5080568;28;20131;-81
2024/02/08 05:16:55;;;;;;;0.10;0.10;;;;;;;5.86;69.61;100396.28;5083446;28;20178;-80
2024/02/08 05:19:25;;;;;;;0.20;0.20;;;;;;;5.86;69.71;100389.28;5082812;28;20028;-80
2024/02/08 05:21:54;;;;;;;0.40;0.40;;;;;;;5.91;69.68;100391.91;5081976;28;20028;-80
2024/02/08 05:24:20;;;;;;;0.20;0.20;;;;;;;5.91;69.68;100395.38;5080357;28;20035;-79
2024/02/08 05:26:47;;;;;;;1.00;1.00;;;;;;;5.93;69.66;100384.84;5081008;28;20030;-80
2024/02/08 05:29:19;;;;;;;0.20;0.20;;;;;;;5.96;69.87;100379.59;5081026;28;20032;-80
2024/02/08 05:31:47;;;;;;;0.30;0.30;;;;;;;5.98;69.69;100365.56;5080424;28;20032;-79
2024/02/08 05:34:13;;;;;;;0.68;0.68;;;;;;;6.01;69.62;100366.41;5080119;28;20033;-80
2024/02/08 05:36:39;;;;;;;0.10;0.10;;;;;;;6.02;69.77;100369.03;5080926;28;20024;-79
2024/02/08 05:39:07;;;;;;;0.20;0.20;;;;;;;6.01;69.59;100362.03;5081285;28;20032;-80
2024/02/08 05:41:33;;;;;;;0.20;0.20;;;;;;;6.04;69.75;100355.88;5080716;28;20107;-80
2024/02/08 05:44:05;;;;;;;0.55;0.55;;;;;;;6.06;69.66;100354.97;5083865;28;20024;-80
2024/02/08 05:46:37;;;;;;;0.52;0.52;;;;;;;6.07;69.84;100358.47;5087362;28;20036;-80
2024/02/08 05:49:05;;;;;;;0.20;0.20;;;;;;;6.06;69.99;100357.59;5086218;28;20123;-80
2024/02/08 05:51:33;;;;;;;0.17;0.17;;;;;;;6.09;70.16;100352.31;5084846;28;20122;-79
2024/02/08 05:54:05;;;;;;;0.20;0.20;;;;;;;6.10;69.80;100354.03;5087486;28;20048;-79
2024/02/08 05:56:33;;;;;;;1.55;1.48;;;;;;;6.13;69.94;100361.03;5090902;28;20043;-81
2024/02/08 05:59:05;;;;;;;0.20;0.20;;;;;;;6.13;69.47;100359.28;5099268;28;20032;-81
2024/02/08 06:01:43;;;;;;;0.30;0.30;;;;;;;6.15;69.74;100359.28;5096521;28;20058;-82
2024/02/08 06:04:12;;;;;;;0.22;0.22;;;;;;;6.14;69.59;100361.03;5093160;28;20464;-81
2024/02/08 06:06:48;;;;;;;0.20;0.20;;;;;;;6.13;69.43;100361.91;5096504;28;20035;-80
2024/02/08 06:12:08;;;;;;;0.10;0.10;;;;;;;6.13;69.87;100350.50;5097250;28;20044;-80
2024/02/08 06:14:38;;;;;;;0.20;0.20;;;;;;;6.10;69.77;100342.66;5096574;28;20027;-82
2024/02/08 06:17:07;;;;;;;0.13;0.13;;;;;;;6.08;69.91;100336.53;5096642;28;20032;-83
2024/02/08 06:19:37;;;;;;;0.10;0.10;;;;;;;6.06;69.86;100328.66;5092423;28;20024;-80
2024/02/08 06:22:20;;;;;;;0.20;0.20;;;;;;;6.06;69.59;100314.66;5094755;28;20043;-81
2024/02/08 06:24:46;;;;;;;0.20;0.20;;;;;;;6.07;69.52;100311.13;5092752;28;20039;-81
2024/02/08 06:27:14;;;;;;;0.10;0.10;;;;;;;6.05;69.58;100303.25;5091434;28;20028;-81
2024/02/08 06:29:42;;;;;;;0.20;0.20;;;;;;;6.05;69.69;100305.03;5092513;28;20035;-80
2024/02/08 06:32:23;;;;;;;0.10;0.10;;;;;;;6.07;69.52;100301.50;5090638;28;20032;-81
2024/02/08 06:34:57;;;;;;;0.20;0.20;;;;;;;6.09;69.73;100301.47;5080197;28;20029;-82
2024/02/08 06:37:26;;;;;;;0.30;0.30;;;;;;;6.12;69.78;100289.16;5083465;28;20051;-81
2024/02/08 06:39:56;;;;;;;0.47;0.47;;;;;;;6.13;69.83;100272.50;5084509;28;20038;-82
2024/02/08 06:48:32;;;;;;;0.90;0.90;;;;;;;6.13;69.53;100280.38;5119636;27;20448;-82
2024/02/08 07:38:07;;;;;;;0.15;0.15;;;;;;;6.14;70.39;100247.03;5112158;28;20040;-80
2024/02/08 07:40:36;;;;;;;1.05;1.05;;;;;;;6.11;70.44;100228.69;5118304;28;20028;-80
2024/02/08 07:43:19;;;;;;;0.10;0.10;;;;;;;6.13;70.01;100235.66;5118571;28;20064;-80
2024/02/08 07:45:51;;;;;;;0.35;0.35;;;;;;;6.17;70.47;100230.34;5109288;28;20028;-80
2024/02/08 07:48:52;;;;;;;0.20;0.20;;;;;;;6.20;70.50;100219.81;5109067;28;20032;-80
2024/02/08 07:51:04;;;;;;;0.20;0.20;;;;;;;6.25;69.99;100218.00;5108196;28;20086;-83
2024/02/08 07:53:35;;;;;;;0.10;0.10;;;;;;;6.25;70.22;100220.63;5112718;28;20074;-80
2024/02/08 07:56:25;;;;;;;1.10;1.00;;;;;;;6.26;70.33;100225.00;5103020;28;20775;-80
2024/02/08 07:58:50;;;;;;;0.10;0.10;;;;;;;6.32;70.22;100219.66;5100055;28;20042;-80
2024/02/08 08:01:18;;;;;;;0.10;0.10;;;;;;;6.35;69.99;100229.28;5096965;28;20036;-81
2024/02/08 08:03:45;;;;;;;0.52;0.52;;;;;;;6.38;70.35;100216.97;5095354;28;20102;-80
2024/02/08 08:06:15;;;;;;;0.10;0.10;;;;;;;6.37;70.26;100220.47;5096599;28;20020;-81
2024/02/08 08:08:43;;;;;;;1.20;1.17;;;;;;;6.38;70.23;100213.44;5094731;28;20404;-81
2024/02/08 08:11:15;;;;;;;0.30;0.30;;;;;;;6.45;69.97;100210.69;5096978;28;20111;-80
2024/02/08 08:19:12;;;;;;;0.20;0.20;;;;;;;6.56;70.00;100196.53;5112573;27;20203;-79
2024/02/08 08:24:25;;;;;;;0.20;0.20;;;;;;;6.61;69.66;100186.81;5129642;27;20415;-80
2024/02/08 08:27:06;;;;;;;1.65;1.55;;;;;;;6.62;70.09;100176.25;5106388;28;20036;-81
2024/02/08 08:29:42;;;;;;;1.13;0.85;;;;;;;6.66;69.59;100177.09;5108359;28;20032;-80
2024/02/08 08:37:45;;;;;;;0.15;0.15;;;;;;;6.74;69.77;100164.69;5095634;28;20032;-80
2024/02/08 08:40:47;;;;;;;5.07;1.75;;;;;;;6.77;69.39;100154.09;5113785;28;20030;-80
2024/02/08 08:42:59;;;;;;;0.20;0.20;;;;;;;6.74;69.02;100154.16;5104572;28;20085;-80
2024/02/08 08:45:25;;;;;;;1.17;1.17;;;;;;;6.81;69.57;100154.94;5121427;28;20097;-80
2024/02/08 08:47:53;;;;;;;0.30;0.30;;;;;;;6.84;69.03;100148.75;5087526;28;20032;-85
2024/02/08 08:50:20;;;;;;;0.30;0.30;;;;;;;6.80;69.03;100137.38;5110429;28;20027;-80
2024/02/08 08:52:49;;;;;;;0.20;0.20;;;;;;;6.84;69.03;100128.56;5111717;28;20094;-81
2024/02/08 08:55:17;;;;;;;0.10;0.10;;;;;;;6.80;69.03;100126.84;5104096;28;20025;-79
2024/02/08 08:57:53;;;;;;;0.10;0.10;;;;;;;6.87;69.11;100117.97;5110335;28;20028;-79
2024/02/08 09:00:31;;;;;;;0.20;0.20;;;;;;;6.88;68.78;100116.19;5109028;28;20020;-80
2024/02/08 09:02:59;;;;;;;0.73;0.73;;;;;;;6.82;68.70;100103.13;5113585;28;20056;-80
2024/02/08 09:05:36;;;;;;;0.40;0.40;;;;;;;6.86;68.67;100107.47;5101673;28;20028;-79
2024/02/08 09:08:09;;;;;;;1.65;0.75;;;;;;;6.86;68.37;100102.19;5108045;28;20032;-79
2024/02/08 09:10:40;;;;;;;0.20;0.20;;;;;;;6.85;68.17;100105.72;5112286;28;20030;-79
2024/02/08 09:13:07;;;;;;;0.20;0.20;;;;;;;6.89;68.27;100104.75;5109767;28;20047;-79
2024/02/08 09:15:48;;;;;;;0.43;0.43;;;;;;;6.88;68.18;100103.03;5108045;28;20021;-78
2024/02/08 09:18:15;;;;;;;0.43;0.43;;;;;;;6.80;68.10;100101.41;5097469;28;20115;-78
2024/02/08 09:20:42;;;;;;;0.30;0.30;;;;;;;6.88;67.95;100103.91;5097878;28;20162;-79
2024/02/08 09:23:17;;;;;;;0.13;0.13;;;;;;;6.89;67.74;100105.66;5107076;28;20028;-80
2024/02/08 09:25:44;;;;;;;0.15;0.15;;;;;;;6.85;67.64;100100.44;5108226;28;20082;-79
2024/02/08 09:28:35;;;;;;;0.10;0.10;;;;;;;6.91;68.46;100092.44;5105592;28;20036;-79
2024/02/08 09:31:12;;;;;;;0.20;0.20;;;;;;;6.91;68.27;100084.56;5102249;28;20119;-80
2024/02/08 09:33:48;;;;;;;0.30;0.30;;;;;;;6.87;67.52;100086.38;5091991;28;20038;-79
2024/02/08 09:36:15;;;;;;;0.17;0.17;;;;;;;6.93;67.55;100088.03;5079371;28;20024;-79
2024/02/08 09:38:43;;;;;;;0.35;0.35;;;;;;;6.93;67.71;100094.16;5085908;28;20046;-79
2024/02/08 09:41:16;;;;;;;0.25;0.25;;;;;;;6.89;67.81;100089.84;5087334;28;20251;-80
2024/02/08 09:43:44;;;;;;;;;;;;;;;7.11;67.48;100081.56;5081806;28;20104;-79
2024/02/08 09:46:28;;;;;;;0.10;0.10;;;;;;;6.96;67.94;100067.75;5083608;28;19912;-79
2024/02/08 09:49:13;;;;;;;0.40;0.40;;;;;;;7.02;67.18;100073.84;5095659;28;20024;-79
2024/02/08 09:51:41;;;;;;;5.28;0.85;;;;;;;7.00;67.19;100073.84;5095425;28;20031;-79
2024/02/08 09:54:38;;;;;;;0.30;0.30;;;;;;;6.95;67.48;100065.16;5081540;28;20709;-81
2024/02/08 09:57:21;;;;;;;0.10;0.10;;;;;;;7.02;67.47;100052.78;5080766;28;20058;-82
2024/02/08 10:00:10;;;;;;;0.20;0.20;;;;;;;7.04;67.54;100040.41;5079743;28;20391;-81
2024/02/08 10:02:53;;;;;;;0.30;0.30;;;;;;;7.02;67.31;100035.19;5086856;28;20047;-80
2024/02/08 10:05:19;;;;;;;0.10;0.10;;;;;;;7.08;67.75;100018.41;5075745;28;20488;-81
2024/02/08 10:08:05;;;;;;;0.15;0.15;;;;;;;7.15;67.40;100021.78;5078846;28;20115;-80
2024/02/08 10:10:38;;;;;;;2.58;2.38;;;;;;;7.13;68.17;100008.66;5092622;28;20032;-82
2024/02/08 10:13:13;;;;;;;0.10;0.10;;;;;;;7.12;68.10;99996.38;5099596;28;20024;-81
2024/02/08 10:15:39;;;;;;;0.20;0.20;;;;;;;7.12;68.28;99991.97;5090845;28;20115;-81
2024/02/08 10:18:23;;;;;;;0.10;0.10;;;;;;;7.10;68.08;99977.97;5092297;28;20032;-81
2024/02/08 10:20:49;;;;;;;0.55;0.55;;;;;;;7.18;68.22;99984.81;5104102;28;20028;-81
2024/02/08 10:23:58;;;;;;;0.10;0.10;;;;;;;7.22;68.29;99991.78;5104948;28;20040;-81
2024/02/08 10:26:38;;;;;;;0.10;0.10;;;;;;;7.24;68.10;99989.97;5101382;28;20031;-81
2024/02/08 10:28:53;;;;;;;0.15;0.15;;;;;;;7.25;67.93;99989.09;5099920;28;20036;-81
2024/02/08 10:31:28;;;;;;;0.20;0.20;;;;;;;7.20;67.77;99985.69;5090836;28;20029;-80
2024/02/08 10:34:08;;;;;;;0.30;0.30;;;;;;;7.20;67.57;99977.78;5084316;28;20073;-81
2024/02/08 10:36:39;;;;;;;0.25;0.25;;;;;;;7.13;67.42;99970.00;5098334;28;20054;-81
2024/02/08 10:39:08;;;;;;;0.65;0.65;;;;;;;7.18;67.91;99980.44;5078982;28;20029;-81
2024/02/08 10:41:38;;;;;;;0.20;0.20;;;;;;;7.20;67.70;99990.94;5064990;28;20059;-80
2024/02/08 10:44:06;;;;;;;0.40;0.40;;;;;;;7.13;68.29;99998.97;5065124;28;20101;-81
2024/02/08 10:46:33;;;;;;;0.20;0.20;;;;;;;7.18;67.71;99985.72;5065018;28;20032;-81
2024/02/08 10:49:08;;;;;;;0.10;0.10;;;;;;;7.18;68.31;99971.66;5066295;28;20119;-81
2024/02/08 10:51:36;;;;;;;0.10;0.10;;;;;;;7.10;68.61;99962.16;5066935;28;20044;-81
2024/02/08 10:54:05;;;;;;;0.15;0.15;;;;;;;7.15;68.32;99969.09;5065365;28;20017;-82
2024/02/08 10:57:06;;;;;;;0.17;0.17;;;;;;;7.24;68.87;99985.59;5070720;28;20067;-81
2024/02/08 10:59:55;;;;;;;3.40;2.40;;;;;;;7.20;68.83;99988.31;5086519;28;20515;-82
2024/02/08 11:02:24;;;;;;;0.13;0.13;;;;;;;7.13;67.96;99979.66;5103918;28;20044;-82
2024/02/08 11:05:12;;;;;;;0.43;0.43;;;;;;;7.17;68.62;99943.59;5094763;28;20450;-82
2024/02/08 11:07:45;;;;;;;0.10;0.10;;;;;;;7.13;68.82;99959.44;5097575;28;20032;-81
2024/02/08 11:10:12;;;;;;;0.10;0.10;;;;;;;7.06;68.28;99971.00;5101491;28;20486;-80
2024/02/08 11:12:40;;;;;;;0.20;0.20;;;;;;;7.17;68.50;99988.38;5099541;28;20032;-81
2024/02/08 11:17:50;;;;;;;0.20;0.20;;;;;;;7.17;69.09;99970.81;5111907;27;20166;-81
2024/02/08 11:20:33;;;;;;;3.40;1.38;;;;;;;7.17;69.42;99983.13;5097743;28;20402;-81
2024/02/08 11:23:09;;;;;;;0.20;0.20;;;;;;;7.13;68.61;99970.00;5081025;28;20050;-79
2024/02/08 11:25:38;;;;;;;0.20;0.20;;;;;;;7.01;68.98;99957.06;5090021;28;20511;-81
2024/02/08 11:28:15;;;;;;;0.10;0.10;;;;;;;7.04;68.97;99951.75;5091145;28;20038;-82
2024/02/08 11:30:46;;;;;;;9.25;6.57;;;;;;;7.04;69.56;99935.94;5093536;28;20020;-81
2024/02/08 11:33:13;;;;;;;3.78;3.58;;;;;;;7.06;69.86;99923.59;5093268;28;20044;-80
2024/02/08 11:35:56;;;;;;;4.15;3.20;;;;;;;7.03;69.24;99918.41;5098479;28;20108;-81
2024/02/08 11:38:26;;;;;;;;;;;;;;;7.23;69.19;99909.22;5099086;28;20033;-81
2024/02/08 11:40:57;;;;;;;1.38;1.30;;;;;;;7.04;69.24;99906.09;5098679;28;19912;-82
2024/02/08 11:43:24;;;;;;;2.47;2.28;;;;;;;7.08;68.98;99887.56;5096311;28;20034;-81
2024/02/08 11:45:53;;;;;;;0.88;0.88;;;;;;;7.07;69.07;99883.19;5090370;28;20098;-81
2024/02/08 11:48:41;;;;;;;0.50;0.50;;;;;;;7.15;69.70;99872.47;5090859;28;20098;-79
2024/02/08 11:51:12;;;;;;;0.10;0.10;;;;;;;7.15;69.11;99858.47;5090787;28;20434;-81
2024/02/08 11:53:41;;;;;;;0.10;0.10;;;;;;;7.06;68.85;99860.38;5094892;28;20519;-81
2024/02/08 11:56:08;;;;;;;0.17;0.17;;;;;;;7.07;69.46;99864.75;5091750;28;20134;-79
2024/02/08 11:58:44;;;;;;;0.20;0.20;;;;;;;7.09;69.73;99852.44;5090752;28;20042;-83
2024/02/08 12:01:14;;;;;;;0.25;0.25;;;;;;;7.00;69.74;99844.69;5092283;28;20051;-80
2024/02/08 12:03:41;;;;;;;0.13;0.13;;;;;;;7.01;69.93;99830.63;5091605;28;20111;-81
2024/02/08 12:06:21;;;;;;;0.20;0.20;;;;;;;7.09;69.30;99822.56;5092307;28;20035;-81
2024/02/08 12:09:02;;;;;;;0.10;0.10;;;;;;;6.99;69.73;99810.50;5091566;28;20031;-79
2024/02/08 12:11:30;;;;;;;0.20;0.20;;;;;;;6.95;69.83;99809.69;5096128;28;20411;-80
2024/02/08 12:14:02;;;;;;;0.20;0.20;;;;;;;6.94;69.73;99803.59;5091606;28;20031;-80
2024/02/08 12:16:29;;;;;;;0.20;0.20;;;;;;;6.96;69.42;99796.50;5091120;28;20035;-79
2024/02/08 12:18:56;;;;;;;0.10;0.10;;;;;;;6.99;70.22;99790.31;5088270;28;20046;-80
2024/02/08 12:21:23;;;;;;;0.20;0.20;;;;;;;7.02;70.02;99792.03;5085823;28;20031;-82
2024/02/08 12:23:53;;;;;;;0.15;0.15;;;;;;;7.01;70.52;99791.13;5089130;28;20144;-80
2024/02/08 12:26:23;;;;;;;0.20;0.20;;;;;;;7.08;70.28;99784.84;5089366;28;20024;-81
2024/02/08 12:28:56;;;;;;;2.50;1.10;;;;;;;7.05;70.46;99773.50;5070228;28;20099;-80
2024/02/08 12:31:24;;;;;;;;;;;;;;;7.26;69.93;99764.22;5069893;28;20055;-81
2024/02/08 12:33:53;;;;;;;0.10;0.10;;;;;;;7.05;70.49;99763.84;5066345;28;19920;-81
2024/02/08 12:36:23;;;;;;;0.10;0.10;;;;;;;7.16;69.91;99754.81;5084718;28;20019;-82
2024/02/08 12:38:50;;;;;;;0.10;0.10;;;;;;;7.17;70.61;99759.19;5079333;28;20070;-81
2024/02/08 12:41:21;;;;;;;0.17;0.17;;;;;;;7.16;70.52;99758.31;5079016;28;20033;-82
2024/02/08 12:43:51;;;;;;;0.35;0.35;;;;;;;7.20;70.77;99756.47;5077373;28;20024;-82
2024/02/08 12:46:19;;;;;;;0.10;0.10;;;;;;;7.15;70.77;99755.72;5084864;28;20097;-80
2024/02/08 12:48:47;;;;;;;0.20;0.20;;;;;;;7.19;70.33;99738.94;5080977;28;20487;-82
2024/02/08 12:51:19;;;;;;;0.25;0.25;;;;;;;7.10;70.00;99719.81;5078182;28;20050;-81
2024/02/08 12:53:46;;;;;;;0.20;0.20;;;;;;;7.06;69.99;99712.88;5087116;28;20092;-80
2024/02/08 12:56:12;;;;;;;0.20;0.20;;;;;;;6.94;70.04;99711.41;5076687;28;20033;-81
2024/02/08 12:58:39;;;;;;;0.10;0.10;;;;;;;6.94;69.90;99707.91;5072953;28;20037;-80
2024/02/08 13:01:05;;;;;;;0.10;0.10;;;;;;;6.93;70.19;99711.47;5073898;28;20060;-80
2024/02/08 13:03:34;;;;;;;0.15;0.15;;;;;;;6.92;69.86;99701.81;5067844;28;20457;-80
2024/02/08 13:06:03;;;;;;;0.10;0.10;;;;;;;6.93;70.47;99707.03;5066375;28;20074;-81
2024/02/08 13:08:33;;;;;;;0.50;0.50;;;;;;;6.89;70.63;99693.97;5073669;28;20032;-81
2024/02/08 13:11:00;;;;;;;0.10;0.10;;;;;;;6.96;70.71;99685.03;5074563;28;20024;-81
2024/02/08 13:13:27;;;;;;;0.10;0.10;;;;;;;6.93;70.92;99666.69;5075440;28;20055;-81
2024/02/08 13:16:01;;;;;;;0.20;0.20;;;;;;;6.90;70.18;99661.47;5075676;28;20040;-80
2024/02/08 13:18:29;;;;;;;0.20;0.20;;;;;;;6.90;71.06;99638.66;5076266;28;20387;-81
2024/02/08 13:20:57;;;;;;;0.10;0.10;;;;;;;6.90;70.76;99627.25;5072479;28;20024;-80
2024/02/08 13:23:23;;;;;;;0.20;0.20;;;;;;;6.84;71.28;99628.28;5077328;28;20434;-80
2024/02/08 13:25:54;;;;;;;0.10;0.10;;;;;;;6.86;71.16;99630.88;5079409;28;20497;-80
2024/02/08 13:28:23;;;;;;;2.67;2.47;;;;;;;6.98;71.16;99643.75;5073787;28;20491;-81
2024/02/08 13:30:52;;;;;;;2.53;1.88;;;;;;;6.87;70.92;99640.50;5076508;28;20015;-80
2024/02/08 13:33:18;;;;;;;0.20;0.20;;;;;;;6.86;70.93;99631.72;5073651;28;20028;-81
2024/02/08 13:35:45;;;;;;;0.13;0.13;;;;;;;6.87;71.11;99616.81;5070059;28;20043;-81
2024/02/08 13:38:12;;;;;;;0.10;0.10;;;;;;;6.84;71.15;99601.97;5074039;28;20078;-82
2024/02/08 13:40:42;;;;;;;0.20;0.20;;;;;;;6.84;71.57;99598.44;5073436;28;20025;-81
2024/02/08 13:43:10;;;;;;;0.20;0.20;;;;;;;6.78;71.18;99597.69;5074977;28;20495;-81
2024/02/08 13:45:38;;;;;;;0.10;0.10;;;;;;;6.84;71.52;99596.69;5074539;28;20028;-81
2024/02/08 13:48:09;;;;;;;0.10;0.10;;;;;;;6.84;71.17;99593.19;5075293;28;20033;-81